Latest Weather Observations for Loxton

IDS60801

Issued at 6:31 pm CDT Thursday 17 October 2019 (issued every 10 minutes, with the page automatically refreshed every 10 minutes)

About weather observations | Map of weather stations | Latest weather observations for SA | Other Formats
Station Details ID: 024024 Name: LOXTON RESEARCH CENTRE Lat: -34.44 Lon: 140.60 Height: 30.1 m
Data from the previous 72 hours. | See also: Recent months at Loxton
Date/Time
CDT
Temp
°C
App
Temp
°C
Dew
Point
°C
Rel
Hum
%
Delta-T
°C
Wind Press
QNH
hPa
Press
MSL
hPa
Rain since
9am
mm
Dir  Spd
km/h
Gust
km/h
Spd
kts
Gust
kts
17/06:00pm 19.8 15.0 -2.7 21 9.4 WSW 13 22 7 12 1017.2 1017.1 0.0
17/05:30pm 19.9 14.3 -3.0 21 9.5 SW 17 33 9 18 1017.0 1016.9 0.0
17/05:00pm 19.6 12.7 -2.3 22 9.2 SW 24 33 13 18 1016.9 1016.8 0.0
17/04:30pm 19.9 14.0 -2.5 22 9.4 SW 19 32 10 17 1016.9 1016.8 0.0
17/04:00pm 20.2 14.3 -1.9 22 9.4 WSW 19 28 10 15 1017.0 1016.9 0.0
17/03:30pm 19.7 13.6 -2.1 23 9.2 WSW 20 46 11 25 1017.2 1017.1 0.0
17/03:00pm 19.7 12.7 -3.4 21 9.5 SW 24 35 13 19 1017.4 1017.3 0.0
17/02:30pm 18.9 11.3 -2.5 23 8.9 SW 28 46 15 25 1017.6 1017.5 0.0
17/02:00pm 19.0 12.0 -3.7 21 9.2 SW 24 39 13 21 1018.0 1017.9 0.0
17/01:30pm 18.2 11.4 -1.5 26 8.3 WSW 24 37 13 20 1018.2 1018.1 0.0
17/01:00pm 17.5 10.3 -2.1 26 8.1 SW 26 39 14 21 1018.5 1018.4 0.0
17/12:30pm 16.6 9.1 -1.5 29 7.5 WSW 28 50 15 27 1018.5 1018.4 0.0
17/12:28pm 17.4 9.9 -1.5 27 7.9 WSW 28 50 15 27 1018.4 1018.3 0.0
17/12:00pm 16.6 9.3 -0.3 31 7.2 SW 28 43 15 23 1018.8 1018.7 0.0
17/11:30am 16.8 9.7 -1.1 29 7.5 WSW 26 41 14 22 1018.7 1018.6 0.0
17/11:00am 15.8 7.4 -2.6 28 7.4 WSW 32 48 17 26 1018.9 1018.8 0.0
17/10:39am 15.0 6.9 -0.6 34 6.5 WSW 32 52 17 28 1018.8 1018.7 0.0
17/10:30am 16.2 9.6 -0.7 31 7.1 WSW 24 41 13 22 1018.8 1018.7 0.0
17/10:00am 14.3 7.6 1.6 42 5.5 WSW 26 41 14 22 1018.8 1018.7 0.0
17/09:30am 13.7 7.5 2.3 46 5.0 WSW 24 35 13 19 1018.6 1018.5 0.0
17/09:15am 13.5 6.6 2.6 47 4.8 WSW 28 46 15 25 1018.4 1018.3 0.0
17/09:00am 13.5 7.6 3.8 52 4.4 WSW 24 35 13 19 1018.4 1018.3 2.6
17/08:30am 12.1 6.5 3.5 55 3.8 W 22 35 12 19 1018.1 1018.0 2.6
17/08:00am 11.4 6.3 4.0 60 3.3 W 20 33 11 18 1017.6 1017.5 2.6
17/07:30am 10.5 5.9 3.7 63 3.0 W 17 24 9 13 1017.2 1017.1 2.6
17/07:00am 9.4 4.8 3.9 68 2.4 W 17 28 9 15 1016.7 1016.6 2.6
17/06:30am 8.5 4.7 3.9 73 2.0 W 13 20 7 11 1016.3 1016.2 2.6
17/06:00am 8.3 4.9 3.9 74 1.9 WNW 11 15 6 8 1015.8 1015.7 2.6
17/05:30am 8.8 5.0 3.7 70 2.2 WNW 13 20 7 11 1015.4 1015.3 2.6
17/05:00am 9.7 5.5 3.8 66 2.6 W 15 20 8 11 1015.1 1015.0 2.6
17/04:30am 9.4 5.6 3.7 67 2.5 W 13 19 7 10 1014.9 1014.8 2.6
17/04:00am 10.2 5.5 3.3 62 3.0 W 17 26 9 14 1014.8 1014.7 2.6
17/03:30am 10.1 6.2 3.4 63 2.9 W 13 19 7 10 1014.9 1014.8 2.6
17/03:00am 11.0 6.4 3.5 60 3.3 W 17 26 9 14 1014.9 1014.8 2.6
17/02:30am 11.6 6.6 3.5 57 3.6 W 19 28 10 15 1014.9 1014.8 2.6
17/02:00am 11.7 8.0 4.7 62 3.2 W 13 17 7 9 1015.0 1014.9 2.6
17/01:30am 12.5 9.0 5.4 62 3.3 WSW 13 19 7 10 1015.1 1015.0 2.6
17/01:00am 12.3 8.0 5.4 63 3.2 W 17 20 9 11 1015.2 1015.1 2.6
17/12:30am 12.0 8.7 6.5 69 2.6 W 13 19 7 10 1015.2 1015.1 2.6
17/12:00am 12.2 9.1 7.2 71 2.4 W 13 19 7 10 1014.9 1014.8 2.6
 
Date/Time
CDT
Temp
°C
App
Temp
°C
Dew
Point
°C
Rel
Hum
%
Delta-T
°C
Wind Press
QNH
hPa
Press
MSL
hPa
Rain since
9am
mm
Dir  Spd
km/h
Gust
km/h
Spd
kts
Gust
kts
16/11:30pm 13.2 8.8 7.2 67 2.9 WSW 20 30 11 16 1014.8 1014.7 2.6
16/11:00pm 13.7 9.0 7.8 67 2.9 WSW 22 32 12 17 1014.6 1014.5 2.6
16/10:30pm 14.6 10.0 3.9 48 4.9 W 17 26 9 14 1014.4 1014.3 2.6
16/10:00pm 14.6 10.7 3.3 46 5.1 W 13 20 7 11 1014.2 1014.1 2.6
16/09:30pm 14.8 10.5 3.3 46 5.2 W 15 20 8 11 1014.2 1014.1 2.6
16/09:00pm 15.4 10.3 3.0 43 5.6 W 19 26 10 14 1014.1 1014.0 2.6
16/08:30pm 16.2 11.4 2.4 39 6.2 WSW 17 26 9 14 1013.5 1013.4 2.6
16/08:00pm 16.8 12.3 2.1 37 6.6 WSW 15 28 8 15 1013.2 1013.1 2.6
16/07:30pm 17.9 11.7 -0.1 29 7.8 W 22 35 12 19 1012.6 1012.6 2.6
16/07:00pm 19.2 13.4 -1.4 25 8.8 WSW 19 28 10 15 1012.3 1012.3 2.6
16/06:30pm 19.9 15.0 4.3 35 7.5 SW 19 30 10 16 1011.9 1011.9 2.6
16/06:00pm 19.3 14.7 6.5 43 6.4 SW 20 32 11 17 1011.5 1011.5 2.6
16/05:30pm 20.6 16.2 7.6 43 6.7 WSW 20 32 11 17 1011.1 1011.1 2.6
16/05:00pm 20.5 16.3 8.2 45 6.4 SW 20 32 11 17 1010.7 1010.7 2.6
16/04:30pm 20.6 16.5 8.6 46 6.3 WSW 20 32 11 17 1010.4 1010.4 2.6
16/04:00pm 19.9 16.1 8.9 49 5.8 SW 19 28 10 15 1010.5 1010.5 2.6
16/03:30pm 19.9 15.9 8.4 47 6.0 WSW 19 30 10 16 1010.4 1010.4 2.6
16/03:00pm 19.6 15.5 8.7 49 5.7 SW 20 35 11 19 1010.6 1010.6 2.6
16/02:30pm 19.7 16.5 9.8 52 5.3 SW 17 30 9 16 1010.8 1010.8 2.6
16/02:00pm 20.3 16.4 9.6 50 5.7 WSW 20 28 11 15 1011.1 1011.1 2.6
16/01:30pm 18.4 14.8 9.9 57 4.5 WSW 19 26 10 14 1011.6 1011.6 2.6
16/01:00pm 18.3 15.5 11.3 63 3.8 SW 17 26 9 14 1011.9 1011.9 2.6
16/12:30pm 17.0 14.3 11.7 71 2.9 SW 17 20 9 11 1012.3 1012.3 2.6
16/12:00pm 16.0 13.5 11.2 73 2.6 SW 15 24 8 13 1012.6 1012.6 2.6
16/11:30am 15.6 12.0 10.5 71 2.7 SW 20 30 11 16 1013.1 1013.0 2.6
16/11:00am 15.8 12.5 11.5 75 2.3 SW 20 33 11 18 1013.4 1013.3 2.6
16/10:30am 15.6 12.6 12.1 80 1.9 SW 19 24 10 13 1013.5 1013.4 2.6
16/10:00am 14.8 13.5 12.6 87 1.2 SSW 11 15 6 8 1013.8 1013.7 2.6
16/09:30am 14.2 13.1 12.0 87 1.2 S 9 13 5 7 1013.4 1013.3 1.0
16/09:00am 14.7 12.9 10.9 78 2.0 S 11 17 6 9 1012.9 1012.8 0.0
16/08:30am 15.1 11.1 8.1 63 3.5 SSE 19 24 10 13 1012.1 1012.1 0.0
16/08:00am 14.7 11.5 8.3 65 3.2 SSE 15 20 8 11 1012.6 1012.6 0.0
16/07:30am 13.4 10.6 8.4 72 2.5 SSE 13 17 7 9 1012.8 1012.7 0.0
16/07:00am 11.8 9.3 8.4 80 1.7 S 11 15 6 8 1012.2 1012.2 0.0
16/06:30am 11.4 8.9 8.1 80 1.6 SSE 11 17 6 9 1011.3 1011.3 0.0
16/06:00am 11.5 8.3 8.5 82 1.5 S 15 20 8 11 1011.4 1011.4 0.0
16/05:30am 12.0 9.7 9.0 82 1.5 S 11 15 6 8 1011.7 1011.7 0.0
16/05:00am 11.3 9.4 9.1 86 1.1 SSE 9 11 5 6 1011.2 1011.2 0.0
16/04:30am 11.7 10.2 9.3 85 1.2 SE 7 9 4 5 1011.0 1011.0 0.0
16/04:00am 12.1 10.4 9.7 85 1.2 SE 9 13 5 7 1010.9 1010.9 0.0
16/03:30am 12.8 11.1 9.9 82 1.5 S 9 13 5 7 1011.8 1011.8 0.0
16/03:00am 13.2 11.6 10.1 81 1.6 SE 9 11 5 6 1011.7 1011.7 0.0
16/02:30am 13.5 11.8 10.0 79 1.8 S 9 13 5 7 1011.9 1011.9 0.0
16/02:00am 13.5 11.9 10.2 80 1.7 S 9 11 5 6 1012.6 1012.6 0.0
16/01:30am 13.8 12.2 10.3 79 1.8 SSW 9 13 5 7 1013.5 1013.4 0.0
16/01:00am 14.5 13.4 10.5 77 2.1 SSE 7 11 4 6 1013.2 1013.1 0.0
16/12:30am 15.2 13.7 10.5 73 2.5 SSW 9 15 5 8 1013.3 1013.2 0.0
16/12:00am 15.8 14.2 10.3 70 2.9 SSE 9 11 5 6 1013.1 1013.0 0.0
 
Date/Time
CDT
Temp
°C
App
Temp
°C
Dew
Point
°C
Rel
Hum
%
Delta-T
°C
Wind Press
QNH
hPa
Press
MSL
hPa
Rain since
9am
mm
Dir  Spd
km/h
Gust
km/h
Spd
kts
Gust
kts
15/11:30pm 16.1 13.8 10.4 69 3.0 S 13 17 7 9 1013.7 1013.6 0.0
15/11:00pm 16.4 14.4 10.1 66 3.3 SSW 11 15 6 8 1014.3 1014.2 0.0
15/10:30pm 16.9 15.1 9.4 61 3.9 SSW 9 15 5 8 1014.4 1014.3 0.0
15/10:00pm 17.4 14.7 8.9 57 4.4 SSW 13 17 7 9 1014.3 1014.2 0.0
15/09:30pm 18.6 14.2 4.9 40 6.6 SSW 17 28 9 15 1014.5 1014.4 0.0
15/09:00pm 19.6 15.8 1.9 30 8.1 SW 11 15 6 8 1015.1 1015.0 0.0
15/08:30pm 19.5 15.6 1.0 29 8.3 SW 11 15 6 8 1014.3 1014.2 0.0
15/08:25pm 19.4 16.3 1.2 29 8.2 SSW 7 11 4 6 1013.5 1013.4 0.0
15/08:00pm 19.7 14.9 0.4 27 8.6 SSE 15 22 8 12 1011.4 1011.4 0.0
15/07:30pm 20.0 14.4 -0.2 26 8.9 S 19 24 10 13 1012.4 1012.4 0.0
15/07:00pm 20.4 14.5 -0.9 24 9.3 S 20 28 11 15 1012.5 1012.5 0.0
15/06:30pm 21.8 17.2 -1.2 21 10.1 SSW 13 20 7 11 1012.4 1012.4 0.0
15/06:00pm 22.0 17.0 -1.2 21 10.2 SSW 15 20 8 11 1012.9 1012.8 0.0
15/05:30pm 22.9 18.6 -1.7 19 10.8 SSW 11 17 6 9 1012.3 1012.3 0.0
15/05:00pm 23.4 19.6 -1.0 19 10.9 SW 9 13 5 7 1011.6 1011.6 0.0
15/04:30pm 23.1 19.6 -1.7 19 10.9 W 7 19 4 10 1012.3 1012.3 0.0
15/04:00pm 23.4 18.5 -3.3 16 11.4 WNW 13 22 7 12 1013.3 1013.2 0.0
15/03:30pm 23.3 17.8 -5.6 14 11.8 WSW 15 20 8 11 1013.2 1013.1 0.0
15/03:00pm 23.0 18.9 -2.9 17 11.1 SW 9 15 5 8 1012.8 1012.7 0.0
15/02:30pm 22.5 18.2 -1.4 20 10.5 WSW 11 22 6 12 1013.1 1013.0 0.0
15/02:00pm 21.9 17.0 -0.2 23 9.9 SW 15 20 8 11 1013.5 1013.4 0.0
15/01:30pm 21.2 17.3 1.4 27 9.1 NW 11 20 6 11 1014.1 1014.0 0.0
15/01:00pm 20.2 16.9 2.6 31 8.2 W 9 17 5 9 1014.3 1014.2 0.0
15/12:30pm 20.3 15.7 1.4 28 8.6 WSW 15 22 8 12 1015.2 1015.1 0.0
15/12:00pm 19.0 15.2 3.8 36 7.2 W 13 20 7 11 1015.7 1015.6 0.0
15/11:30am 18.4 16.3 5.7 43 6.2 E 6 13 3 7 1015.8 1015.7 0.0
15/11:00am 16.6 14.0 5.9 49 5.2 WNW 9 15 5 8 1016.1 1016.0 0.0
15/10:30am 15.9 14.6 6.0 52 4.8 ENE 2 9 1 5 1016.0 1015.9 0.0
15/10:00am 15.1 13.7 7.2 59 3.9 SE 4 9 2 5 1016.3 1016.2 0.0
15/09:30am 13.6 11.0 7.9 68 2.8 SSE 11 15 6 8 1016.7 1016.6 0.0
15/09:00am 12.8 10.6 7.7 71 2.5 S 9 17 5 9 1016.7 1016.6 0.0
15/08:30am 11.2 9.0 7.9 80 1.6 S 9 13 5 7 1016.8 1016.7 0.0
15/08:00am 9.5 7.2 7.4 87 1.0 SSW 9 15 5 8 1016.7 1016.6 0.0
15/07:30am 8.2 5.4 7.1 93 0.5 SW 11 13 6 7 1017.0 1016.9 0.0
15/07:00am 7.3 4.4 6.4 94 0.4 SW 11 13 6 7 1016.8 1016.7 0.0
15/06:30am 7.3 4.8 6.6 95 0.3 WSW 9 11 5 6 1016.5 1016.4 0.0
15/06:00am 7.1 4.6 6.4 95 0.3 W 9 11 5 6 1016.3 1016.2 0.0
15/05:30am 7.3 4.0 6.4 94 0.4 W 13 15 7 8 1016.0 1015.9 0.0
15/05:00am 7.9 5.5 6.8 93 0.5 W 9 11 5 6 1015.5 1015.4 0.0
15/04:30am 7.6 5.6 7.0 96 0.3 S 7 9 4 5 1014.7 1014.6 0.0
15/04:00am 8.0 5.6 6.9 93 0.5 S 9 9 5 5 1014.6 1014.5 0.0
15/03:30am 8.4 6.4 7.1 91 0.6 SSE 7 11 4 6 1014.8 1014.7 0.0
15/03:00am 9.0 7.0 7.1 88 0.9 S 7 9 4 5 1015.3 1015.2 0.0
15/02:30am 9.7 7.4 7.4 85 1.1 S 9 11 5 6 1015.5 1015.4 0.0
15/02:00am 10.2 7.9 7.5 83 1.3 S 9 13 5 7 1015.8 1015.7 0.0
15/01:30am 10.8 8.9 7.5 80 1.6 S 7 11 4 6 1016.1 1016.0 0.0
15/01:00am 11.2 9.0 7.7 79 1.7 SSW 9 15 5 8 1016.6 1016.5 0.0
15/12:30am 11.7 9.4 7.6 76 2.0 S 9 13 5 7 1016.7 1016.6 0.0
15/12:00am 12.5 9.5 7.6 72 2.4 SSW 13 15 7 8 1016.8 1016.7 0.0
 
Date/Time
CDT
Temp
°C
App
Temp
°C
Dew
Point
°C
Rel
Hum
%
Delta-T
°C
Wind Press
QNH
hPa
Press
MSL
hPa
Rain since
9am
mm
Dir  Spd
km/h
Gust
km/h
Spd
kts
Gust
kts
14/11:30pm 13.1 10.1 7.6 69 2.7 SSW 13 20 7 11 1016.8 1016.7 0.0
14/11:00pm 13.8 10.0 7.5 66 3.1 SSW 17 24 9 13 1016.6 1016.5 0.0
14/10:30pm 14.3 10.5 7.4 63 3.4 SSW 17 26 9 14 1016.7 1016.6 0.0
14/10:00pm 14.9 11.1 7.4 61 3.7 SSW 17 26 9 14 1016.3 1016.2 0.0
14/09:30pm 15.7 11.8 7.2 57 4.2 SSW 17 26 9 14 1016.0 1015.9 0.0
14/09:00pm 16.6 12.1 6.9 52 4.8 SSW 20 30 11 16 1015.7 1015.6 0.0
14/08:30pm 17.3 12.7 6.6 49 5.3 SSW 20 33 11 18 1015.3 1015.2 0.0
14/08:00pm 18.2 13.7 6.0 44 6.0 SSW 19 32 10 17 1014.9 1014.8 0.0
14/07:30pm 18.9 14.2 6.2 43 6.3 SSW 20 30 11 16 1014.4 1014.3 0.0
14/07:00pm 20.1 14.5 5.5 38 7.2 SSW 24 37 13 20 1013.9 1013.8 0.0

Other formats

Comma delimited format used in spreadsheet applications
http://www.bom.gov.au/fwo/IDS60801/IDS60801.94682.axf

JavaScript Object Notation format (JSON) in row-major order
http://www.bom.gov.au/fwo/IDS60801/IDS60801.94682.json

Data quality

Most of these data are generated automatically and are frequently updated. Quality checks on data are not normally performed. It is possible for incorrect values to appear. Refer to information at About Latest Weather Observations and please check the disclaimer before using these data.